sensor_id;sensor_type;location;lat;lon;timestamp;pressure;altitude;pressure_sealevel;temperature;humidity
55576;BME280;41437;45.478;9.116;2022-07-06T08:14:59;100123.06;;;28.69;45.77
55576;BME280;41437;45.478;9.116;2022-07-06T08:18:00;100132.44;;;28.69;45.56
55576;BME280;41437;45.478;9.116;2022-07-06T08:21:05;100132.03;;;28.71;45.66
55576;BME280;41437;45.478;9.116;2022-07-06T08:24:07;100130.03;;;28.71;45.36
55576;BME280;41437;45.478;9.116;2022-07-06T08:27:09;100129.63;;;28.73;45.45
55576;BME280;41437;45.478;9.116;2022-07-06T08:30:12;100119.94;;;28.74;45.55
55576;BME280;41437;45.478;9.116;2022-07-06T08:33:14;100122.78;;;28.74;45.63
55576;BME280;41437;45.478;9.116;2022-07-06T08:36:16;100117.94;;;28.74;45.75
55576;BME280;41437;45.478;9.116;2022-07-06T08:39:18;100115.53;;;28.76;45.76
55576;BME280;41437;45.478;9.116;2022-07-06T08:42:20;100114.78;;;28.79;45.66
55576;BME280;41437;45.478;9.116;2022-07-06T08:45:25;100105.88;;;28.81;45.86
55576;BME280;41437;45.478;9.116;2022-07-06T08:48:27;100101.84;;;28.82;45.88
55576;BME280;41437;45.478;9.116;2022-07-06T08:51:34;100109.59;;;28.85;45.74
55576;BME280;41437;45.478;9.116;2022-07-06T08:54:37;100114.06;;;28.86;45.74
55576;BME280;41437;45.478;9.116;2022-07-06T08:57:39;100106.84;;;28.89;45.69
55576;BME280;41437;45.478;9.116;2022-07-06T09:00:42;100109.69;;;28.89;45.77
55576;BME280;41437;45.478;9.116;2022-07-06T09:03:45;100097.94;;;28.90;45.72
55576;BME280;41437;45.478;9.116;2022-07-06T09:06:49;100093.09;;;28.91;45.62
55576;BME280;41437;45.478;9.116;2022-07-06T09:09:52;100095.56;;;28.92;45.62
55576;BME280;41437;45.478;9.116;2022-07-06T09:13:03;100093.97;;;28.95;45.57
55576;BME280;41437;45.478;9.116;2022-07-06T09:16:11;100094.81;;;28.95;45.47
55576;BME280;41437;45.478;9.116;2022-07-06T09:19:13;100086.75;;;28.97;45.63
55576;BME280;41437;45.478;9.116;2022-07-06T09:22:26;100088.38;;;28.98;45.14
55576;BME280;41437;45.478;9.116;2022-07-06T09:25:28;100084.34;;;28.99;45.38
55576;BME280;41437;45.478;9.116;2022-07-06T09:28:40;100086.81;;;29.01;45.28
55576;BME280;41437;45.478;9.116;2022-07-06T09:31:55;100087.25;;;29.03;45.42
55576;BME280;41437;45.478;9.116;2022-07-06T09:34:57;100079.56;;;29.03;45.38
55576;BME280;41437;45.478;9.116;2022-07-06T09:38:03;100082.03;;;29.05;45.51
55576;BME280;41437;45.478;9.116;2022-07-06T09:41:05;100084.47;;;29.07;45.66
55576;BME280;41437;45.478;9.116;2022-07-06T09:44:07;100082.09;;;29.09;45.67
55576;BME280;41437;45.478;9.116;2022-07-06T09:47:11;100078.88;;;29.10;45.59
55576;BME280;41437;45.478;9.116;2022-07-06T09:50:15;100083.34;;;29.11;45.49
55576;BME280;41437;45.478;9.116;2022-07-06T09:53:18;100080.13;;;29.13;45.59
55576;BME280;41437;45.478;9.116;2022-07-06T09:56:20;100082.19;;;29.16;45.56
55576;BME280;41437;45.478;9.116;2022-07-06T09:59:24;100089.56;;;29.20;45.31
55576;BME280;41437;45.478;9.116;2022-07-06T10:02:29;100084.69;;;29.21;45.53
55576;BME280;41437;45.478;9.116;2022-07-06T10:05:32;100071.72;;;29.20;45.55
55576;BME280;41437;45.478;9.116;2022-07-06T10:08:34;100080.72;;;29.25;45.47
55576;BME280;41437;45.478;9.116;2022-07-06T10:11:39;100082.38;;;29.26;45.41
55576;BME280;41437;45.478;9.116;2022-07-06T10:14:41;100074.28;;;29.28;45.05
55576;BME280;41437;45.478;9.116;2022-07-06T10:17:46;100080.03;;;29.32;44.92
55576;BME280;41437;45.478;9.116;2022-07-06T10:20:48;100071.50;;;29.32;45.26
55576;BME280;41437;45.478;9.116;2022-07-06T10:23:51;100074.78;;;29.34;44.99
55576;BME280;41437;45.478;9.116;2022-07-06T10:26:53;100078.47;;;29.38;45.24
55576;BME280;41437;45.478;9.116;2022-07-06T10:29:55;100084.22;;;29.42;45.38
55576;BME280;41437;45.478;9.116;2022-07-06T10:32:59;100076.97;;;29.44;45.19
55576;BME280;41437;45.478;9.116;2022-07-06T10:36:01;100073.75;;;29.46;45.33
55576;BME280;41437;45.478;9.116;2022-07-06T10:39:06;100078.66;;;29.49;45.35
55576;BME280;41437;45.478;9.116;2022-07-06T10:42:44;100079.13;;;29.54;44.87
55576;BME280;41437;45.478;9.116;2022-07-06T10:45:50;100065.75;;;29.55;44.46
55576;BME280;41437;45.478;9.116;2022-07-06T10:48:57;100063.41;;;29.57;44.83
55576;BME280;41437;45.478;9.116;2022-07-06T10:52:04;100055.28;;;29.59;44.83
55576;BME280;41437;45.478;9.116;2022-07-06T10:55:07;100050.06;;;29.61;45.12
55576;BME280;41437;45.478;9.116;2022-07-06T10:58:11;100043.59;;;29.64;44.47
55576;BME280;41437;45.478;9.116;2022-07-06T11:01:13;100042.84;;;29.67;44.33
55576;BME280;41437;45.478;9.116;2022-07-06T11:04:23;100040.44;;;29.69;45.10
55576;BME280;41437;45.478;9.116;2022-07-06T11:07:48;100024.63;;;29.72;44.87
55576;BME280;41437;45.478;9.116;2022-07-06T11:11:10;100017.75;;;29.73;44.87
55576;BME280;41437;45.478;9.116;2022-07-06T11:14:13;100029.22;;;29.80;44.80
55576;BME280;41437;45.478;9.116;2022-07-06T11:17:20;100025.59;;;29.83;44.25
55576;BME280;41437;45.478;9.116;2022-07-06T11:20:24;100023.22;;;29.89;44.67
55576;BME280;41437;45.478;9.116;2022-07-06T11:23:25;100021.19;;;29.89;44.85
55576;BME280;41437;45.478;9.116;2022-07-06T11:26:27;100022.06;;;29.93;44.54
55576;BME280;41437;45.478;9.116;2022-07-06T11:29:29;100023.34;;;29.99;44.27
55576;BME280;41437;45.478;9.116;2022-07-06T11:32:31;100011.97;;;29.99;44.17
55576;BME280;41437;45.478;9.116;2022-07-06T11:35:34;100011.22;;;30.02;44.50
55576;BME280;41437;45.478;9.116;2022-07-06T11:38:36;99992.59;;;30.05;44.19
55576;BME280;41437;45.478;9.116;2022-07-06T11:41:38;100004.00;;;30.09;44.27
55576;BME280;41437;45.478;9.116;2022-07-06T11:44:40;100000.75;;;30.10;43.95
55576;BME280;41437;45.478;9.116;2022-07-06T11:47:42;99997.59;;;30.15;44.12
55576;BME280;41437;45.478;9.116;2022-07-06T11:50:57;100000.88;;;30.21;44.09
55576;BME280;41437;45.478;9.116;2022-07-06T11:54:00;99992.78;;;30.23;43.99
55576;BME280;41437;45.478;9.116;2022-07-06T11:57:02;99982.66;;;30.25;44.04
55576;BME280;41437;45.478;9.116;2022-07-06T12:00:06;99975.38;;;30.28;44.23
55576;BME280;41437;45.478;9.116;2022-07-06T12:03:08;99966.09;;;30.31;43.85
55576;BME280;41437;45.478;9.116;2022-07-06T12:06:16;99966.13;;;30.35;43.58
55576;BME280;41437;45.478;9.116;2022-07-06T12:09:20;99966.56;;;30.40;43.86
55576;BME280;41437;45.478;9.116;2022-07-06T12:12:23;99958.88;;;30.44;43.75
55576;BME280;41437;45.478;9.116;2022-07-06T12:15:26;99961.38;;;30.49;43.46
55576;BME280;41437;45.478;9.116;2022-07-06T12:18:35;99952.44;;;30.51;43.95
55576;BME280;41437;45.478;9.116;2022-07-06T12:21:44;99945.16;;;30.53;43.55
55576;BME280;41437;45.478;9.116;2022-07-06T12:24:46;99946.00;;;30.58;43.50
55576;BME280;41437;45.478;9.116;2022-07-06T12:27:48;99940.34;;;30.61;42.91
55576;BME280;41437;45.478;9.116;2022-07-06T12:30:50;99932.66;;;30.65;43.19
55576;BME280;41437;45.478;9.116;2022-07-06T12:33:56;99921.66;;;30.64;42.96
55576;BME280;41437;45.478;9.116;2022-07-06T12:37:05;99920.09;;;30.70;43.16
55576;BME280;41437;45.478;9.116;2022-07-06T12:40:12;99916.50;;;30.76;42.84
55576;BME280;41437;45.478;9.116;2022-07-06T12:43:34;99904.34;;;30.79;43.44
55576;BME280;41437;45.478;9.116;2022-07-06T12:46:37;99897.84;;;30.79;42.29
55576;BME280;41437;45.478;9.116;2022-07-06T12:49:39;99914.16;;;30.89;42.60
55576;BME280;41437;45.478;9.116;2022-07-06T12:52:44;99904.84;;;30.92;43.15
55576;BME280;41437;45.478;9.116;2022-07-06T12:55:45;99898.72;;;30.94;43.21
55576;BME280;41437;45.478;9.116;2022-07-06T12:58:56;99886.13;;;30.95;43.05
55576;BME280;41437;45.478;9.116;2022-07-06T13:01:58;99881.25;;;30.95;43.03
55576;BME280;41437;45.478;9.116;2022-07-06T13:05:02;99881.25;;;30.95;42.88
55576;BME280;41437;45.478;9.116;2022-07-06T13:08:05;99867.03;;;30.99;42.84
55576;BME280;41437;45.478;9.116;2022-07-06T13:11:09;99868.28;;;31.01;42.02
55576;BME280;41437;45.478;9.116;2022-07-06T13:14:10;99871.53;;;31.03;42.87
55576;BME280;41437;45.478;9.116;2022-07-06T13:17:12;99857.75;;;31.09;42.20
55576;BME280;41437;45.478;9.116;2022-07-06T13:20:14;99863.03;;;31.11;41.99
55576;BME280;41437;45.478;9.116;2022-07-06T13:23:18;99859.78;;;31.12;42.11
55576;BME280;41437;45.478;9.116;2022-07-06T13:26:20;99853.31;;;31.15;42.31
55576;BME280;41437;45.478;9.116;2022-07-06T13:29:23;99853.75;;;31.17;41.89
55576;BME280;41437;45.478;9.116;2022-07-06T13:32:25;99845.19;;;31.21;41.98
55576;BME280;41437;45.478;9.116;2022-07-06T13:35:28;99843.16;;;31.21;41.60
55576;BME280;41437;45.478;9.116;2022-07-06T13:38:34;99844.81;;;31.26;41.29
55576;BME280;41437;45.478;9.116;2022-07-06T13:41:36;99840.81;;;31.31;41.26
55576;BME280;41437;45.478;9.116;2022-07-06T13:44:37;99832.66;;;31.33;41.83
55576;BME280;41437;45.478;9.116;2022-07-06T13:47:41;99827.81;;;31.37;41.46
55576;BME280;41437;45.478;9.116;2022-07-06T13:50:43;99824.53;;;31.38;41.62
55576;BME280;41437;45.478;9.116;2022-07-06T13:53:49;99814.78;;;31.43;41.42
55576;BME280;41437;45.478;9.116;2022-07-06T13:56:51;99817.66;;;31.46;41.55
55576;BME280;41437;45.478;9.116;2022-07-06T13:59:53;99815.63;;;31.54;41.64
55576;BME280;41437;45.478;9.116;2022-07-06T14:02:54;99808.31;;;31.53;39.98
55576;BME280;41437;45.478;9.116;2022-07-06T14:05:57;99813.63;;;31.58;40.68
55576;BME280;41437;45.478;9.116;2022-07-06T14:09:00;99803.84;;;31.63;41.18
55576;BME280;41437;45.478;9.116;2022-07-06T14:12:02;99799.78;;;31.67;41.13
55576;BME280;41437;45.478;9.116;2022-07-06T14:15:05;99797.34;;;31.66;40.96
55576;BME280;41437;45.478;9.116;2022-07-06T14:18:07;99785.56;;;31.71;41.47
55576;BME280;41437;45.478;9.116;2022-07-06T14:21:12;99791.25;;;31.71;40.99
55576;BME280;41437;45.478;9.116;2022-07-06T14:24:15;99792.06;;;31.78;41.28
55576;BME280;41437;45.478;9.116;2022-07-06T14:27:17;99784.75;;;31.81;41.09
55576;BME280;41437;45.478;9.116;2022-07-06T14:30:19;99791.72;;;31.87;40.51
55576;BME280;41437;45.478;9.116;2022-07-06T14:33:21;99783.97;;;31.88;40.79
55576;BME280;41437;45.478;9.116;2022-07-06T14:36:22;99783.97;;;31.91;40.84
55576;BME280;41437;45.478;9.116;2022-07-06T14:39:25;99779.47;;;31.90;40.54
55576;BME280;41437;45.478;9.116;2022-07-06T14:42:30;99790.06;;;31.97;40.05
55576;BME280;41437;45.478;9.116;2022-07-06T14:45:32;99785.56;;;31.99;39.46
55576;BME280;41437;45.478;9.116;2022-07-06T14:48:34;99779.06;;;32.02;40.90
55576;BME280;41437;45.478;9.116;2022-07-06T14:51:35;99774.19;;;32.03;40.63
55576;BME280;41437;45.478;9.116;2022-07-06T14:54:38;99770.53;;;32.06;39.81
55576;BME280;41437;45.478;9.116;2022-07-06T14:57:40;99769.28;;;32.11;40.31
55576;BME280;41437;45.478;9.116;2022-07-06T15:00:43;99766.84;;;32.13;39.15
55576;BME280;41437;45.478;9.116;2022-07-06T15:03:45;99768.47;;;32.14;40.23
55576;BME280;41437;45.478;9.116;2022-07-06T15:06:47;99767.66;;;32.17;40.28
55576;BME280;41437;45.478;9.116;2022-07-06T15:09:50;99763.16;;;32.19;40.28
55576;BME280;41437;45.478;9.116;2022-07-06T15:12:55;99764.41;;;32.22;40.40
55576;BME280;41437;45.478;9.116;2022-07-06T15:15:59;99762.75;;;32.24;40.33
55576;BME280;41437;45.478;9.116;2022-07-06T15:19:00;99766.84;;;32.27;40.44
55576;BME280;41437;45.478;9.116;2022-07-06T15:22:02;99757.06;;;32.32;40.51
55576;BME280;41437;45.478;9.116;2022-07-06T15:25:09;99755.41;;;32.34;40.56
55576;BME280;41437;45.478;9.116;2022-07-06T15:28:11;99759.91;;;32.35;39.96
55576;BME280;41437;45.478;9.116;2022-07-06T15:31:13;99759.47;;;32.37;40.54
55576;BME280;41437;45.478;9.116;2022-07-06T15:34:18;99761.94;;;32.38;40.51
55576;BME280;41437;45.478;9.116;2022-07-06T15:37:19;99761.53;;;32.40;40.53
55576;BME280;41437;45.478;9.116;2022-07-06T15:40:23;99754.59;;;32.44;40.18
55576;BME280;41437;45.478;9.116;2022-07-06T15:43:25;99750.91;;;32.47;40.44
55576;BME280;41437;45.478;9.116;2022-07-06T15:46:29;99765.16;;;32.51;40.11
55576;BME280;41437;45.478;9.116;2022-07-06T15:49:31;99756.22;;;32.52;40.06
55576;BME280;41437;45.478;9.116;2022-07-06T15:52:33;99750.09;;;32.50;40.07
55576;BME280;41437;45.478;9.116;2022-07-06T15:55:36;99746.44;;;32.53;40.02
55576;BME280;41437;45.478;9.116;2022-07-06T15:58:38;99749.66;;;32.56;40.13
55576;BME280;41437;45.478;9.116;2022-07-06T16:01:39;99751.31;;;32.57;39.41
55576;BME280;41437;45.478;9.116;2022-07-06T16:04:45;99744.75;;;32.60;39.71
55576;BME280;41437;45.478;9.116;2022-07-06T16:07:47;99739.88;;;32.60;40.13
55576;BME280;41437;45.478;9.116;2022-07-06T16:10:51;99734.59;;;32.59;39.82
55576;BME280;41437;45.478;9.116;2022-07-06T16:13:52;99739.47;;;32.62;40.13
55576;BME280;41437;45.478;9.116;2022-07-06T16:16:54;99736.63;;;32.65;39.62
55576;BME280;41437;45.478;9.116;2022-07-06T16:19:55;99736.63;;;32.65;39.81
55576;BME280;41437;45.478;9.116;2022-07-06T16:22:57;99728.44;;;32.64;39.64
55576;BME280;41437;45.478;9.116;2022-07-06T16:26:01;99736.19;;;32.67;39.83
55576;BME280;41437;45.478;9.116;2022-07-06T16:29:03;99729.25;;;32.68;39.62
55576;BME280;41437;45.478;9.116;2022-07-06T16:32:05;99733.31;;;32.70;39.52
55576;BME280;41437;45.478;9.116;2022-07-06T16:35:10;99712.94;;;32.68;39.81
55576;BME280;41437;45.478;9.116;2022-07-06T16:38:12;99722.72;;;32.71;39.69
55576;BME280;41437;45.478;9.116;2022-07-06T16:41:15;99721.50;;;32.72;39.65
55576;BME280;41437;45.478;9.116;2022-07-06T16:44:16;99719.88;;;32.74;39.81
55576;BME280;41437;45.478;9.116;2022-07-06T16:47:18;99712.13;;;32.71;39.66
55576;BME280;41437;45.478;9.116;2022-07-06T16:50:20;99708.84;;;32.73;39.55
55576;BME280;41437;45.478;9.116;2022-07-06T16:53:23;99709.66;;;32.73;39.30
55576;BME280;41437;45.478;9.116;2022-07-06T16:56:26;99708.84;;;32.73;39.38
55576;BME280;41437;45.478;9.116;2022-07-06T16:59:28;99715.34;;;32.73;39.54
55576;BME280;41437;45.478;9.116;2022-07-06T17:02:30;99708.84;;;32.73;39.21
55576;BME280;41437;45.478;9.116;2022-07-06T17:05:32;99708.84;;;32.73;39.58
55576;BME280;41437;45.478;9.116;2022-07-06T17:08:33;99712.13;;;32.75;39.37
55576;BME280;41437;45.478;9.116;2022-07-06T17:11:36;99712.94;;;32.72;39.71
55576;BME280;41437;45.478;9.116;2022-07-06T17:14:38;99711.69;;;32.73;39.26
55576;BME280;41437;45.478;9.116;2022-07-06T17:17:40;99718.63;;;32.72;39.44
55576;BME280;41437;45.478;9.116;2022-07-06T17:20:42;99706.44;;;32.68;39.39
55576;BME280;41437;45.478;9.116;2022-07-06T17:23:44;99719.06;;;32.67;39.29
55576;BME280;41437;45.478;9.116;2022-07-06T17:26:47;99710.50;;;32.67;39.27
55576;BME280;41437;45.478;9.116;2022-07-06T17:29:49;99714.59;;;32.62;39.39
55576;BME280;41437;45.478;9.116;2022-07-06T17:32:52;99708.09;;;32.62;39.63
55576;BME280;41437;45.478;9.116;2022-07-06T17:35:54;99711.75;;;32.59;39.35
55576;BME280;41437;45.478;9.116;2022-07-06T17:38:55;99712.56;;;32.59;39.57
55576;BME280;41437;45.478;9.116;2022-07-06T17:42:00;99712.59;;;32.56;39.28
55576;BME280;41437;45.478;9.116;2022-07-06T17:45:02;99711.78;;;32.55;39.31
55576;BME280;41437;45.478;9.116;2022-07-06T17:48:04;99715.06;;;32.53;39.45
55576;BME280;41437;45.478;9.116;2022-07-06T17:51:06;99713.44;;;32.52;39.34
55576;BME280;41437;45.478;9.116;2022-07-06T17:54:08;99713.81;;;32.51;39.22
55576;BME280;41437;45.478;9.116;2022-07-06T17:57:13;99714.69;;;32.48;39.09
55576;BME280;41437;45.478;9.116;2022-07-06T18:00:15;99713.44;;;32.45;39.41
55576;BME280;41437;45.478;9.116;2022-07-06T18:03:19;99711.81;;;32.44;39.46
55576;BME280;41437;45.478;9.116;2022-07-06T18:06:21;99719.97;;;32.42;39.08
55576;BME280;41437;45.478;9.116;2022-07-06T18:09:23;99726.91;;;32.41;39.21
55576;BME280;41437;45.478;9.116;2022-07-06T18:12:26;99726.06;;;32.37;39.15
55576;BME280;41437;45.478;9.116;2022-07-06T18:15:28;99724.84;;;32.35;39.52
55576;BME280;41437;45.478;9.116;2022-07-06T18:18:30;99731.38;;;32.35;39.25
55576;BME280;41437;45.478;9.116;2022-07-06T18:21:32;99730.56;;;32.31;39.32
55576;BME280;41437;45.478;9.116;2022-07-06T18:24:33;99732.19;;;32.28;39.29
55576;BME280;41437;45.478;9.116;2022-07-06T18:27:38;99729.78;;;32.27;39.33
55576;BME280;41437;45.478;9.116;2022-07-06T18:30:40;99725.69;;;32.24;39.20
55576;BME280;41437;45.478;9.116;2022-07-06T18:33:42;99717.13;;;32.21;39.21
55576;BME280;41437;45.478;9.116;2022-07-06T18:36:43;99726.94;;;32.20;39.31
55576;BME280;41437;45.478;9.116;2022-07-06T18:39:45;99730.19;;;32.18;39.13
55576;BME280;41437;45.478;9.116;2022-07-06T18:42:49;99725.31;;;32.15;39.39
55576;BME280;41437;45.478;9.116;2022-07-06T18:45:52;99723.69;;;32.14;39.32
55576;BME280;41437;45.478;9.116;2022-07-06T18:48:54;99728.56;;;32.10;39.22
55576;BME280;41437;45.478;9.116;2022-07-06T18:51:57;99721.25;;;32.09;39.47
55576;BME280;41437;45.478;9.116;2022-07-06T18:54:59;99718.78;;;32.08;39.17
55576;BME280;41437;45.478;9.116;2022-07-06T18:58:05;99723.31;;;32.05;39.63
55576;BME280;41437;45.478;9.116;2022-07-06T19:01:07;99720.44;;;32.01;39.47
55576;BME280;41437;45.478;9.116;2022-07-06T19:04:09;99732.66;;;32.02;39.48
55576;BME280;41437;45.478;9.116;2022-07-06T19:07:10;99734.28;;;31.99;39.24
55576;BME280;41437;45.478;9.116;2022-07-06T19:10:12;99731.03;;;31.97;39.62
55576;BME280;41437;45.478;9.116;2022-07-06T19:13:17;99737.16;;;31.96;39.38
55576;BME280;41437;45.478;9.116;2022-07-06T19:16:19;99739.19;;;31.92;39.52
55576;BME280;41437;45.478;9.116;2022-07-06T19:19:23;99748.56;;;31.92;39.67
55576;BME280;41437;45.478;9.116;2022-07-06T19:22:25;99745.69;;;31.89;39.48
55576;BME280;41437;45.478;9.116;2022-07-06T19:25:27;99751.81;;;31.87;39.79
55576;BME280;41437;45.478;9.116;2022-07-06T19:28:44;99751.41;;;31.85;39.56
55576;BME280;41437;45.478;9.116;2022-07-06T19:31:48;99741.59;;;31.79;39.68
55576;BME280;41437;45.478;9.116;2022-07-06T19:35:05;99752.16;;;31.82;39.67
55576;BME280;41437;45.478;9.116;2022-07-06T19:38:20;99761.94;;;31.81;39.64
55576;BME280;41437;45.478;9.116;2022-07-06T19:41:28;99757.06;;;31.71;39.95
55576;BME280;41437;45.478;9.116;2022-07-06T19:44:32;99767.66;;;31.74;39.71
55576;BME280;41437;45.478;9.116;2022-07-06T19:47:36;99767.25;;;31.72;39.62
55576;BME280;41437;45.478;9.116;2022-07-06T19:50:38;99764.38;;;31.68;39.88
55576;BME280;41437;45.478;9.116;2022-07-06T19:53:41;99774.97;;;31.68;40.08
55576;BME280;41437;45.478;9.116;2022-07-06T19:56:48;99797.75;;;31.71;39.87
55576;BME280;41437;45.478;9.116;2022-07-06T19:59:51;99792.06;;;31.68;39.94
55576;BME280;41437;45.478;9.116;2022-07-06T20:02:53;99781.88;;;31.63;39.97
55576;BME280;41437;45.478;9.116;2022-07-06T20:05:55;99779.84;;;31.57;39.83
55576;BME280;41437;45.478;9.116;2022-07-06T20:08:57;99789.63;;;31.63;39.96
55576;BME280;41437;45.478;9.116;2022-07-06T20:12:02;99805.06;;;31.62;39.86
55576;BME280;41437;45.478;9.116;2022-07-06T20:15:09;99801.41;;;31.54;40.02
55576;BME280;41437;45.478;9.116;2022-07-06T20:18:14;99790.41;;;31.52;40.01
55576;BME280;41437;45.478;9.116;2022-07-06T20:21:34;99801.38;;;31.50;40.05
55576;BME280;41437;45.478;9.116;2022-07-06T20:24:36;99799.75;;;31.49;39.92
55576;BME280;41437;45.478;9.116;2022-07-06T20:27:38;99811.97;;;31.53;40.14
55576;BME280;41437;45.478;9.116;2022-07-06T20:30:42;99811.97;;;31.50;40.25
55576;BME280;41437;45.478;9.116;2022-07-06T20:33:44;99819.28;;;31.51;40.21
55576;BME280;41437;45.478;9.116;2022-07-06T20:36:46;99815.22;;;31.48;40.31
55576;BME280;41437;45.478;9.116;2022-07-06T20:39:47;99827.00;;;31.47;40.31
55576;BME280;41437;45.478;9.116;2022-07-06T20:42:51;99822.94;;;31.44;40.21
55576;BME280;41437;45.478;9.116;2022-07-06T20:45:55;99822.50;;;31.42;40.40
55576;BME280;41437;45.478;9.116;2022-07-06T20:48:59;99831.06;;;31.42;40.46
55576;BME280;41437;45.478;9.116;2022-07-06T20:52:01;99837.16;;;31.41;40.46
55576;BME280;41437;45.478;9.116;2022-07-06T20:55:05;99827.38;;;31.38;40.47
55576;BME280;41437;45.478;9.116;2022-07-06T20:58:07;99835.13;;;31.38;40.32
55576;BME280;41437;45.478;9.116;2022-07-06T21:01:14;99835.94;;;31.38;40.54
55576;BME280;41437;45.478;9.116;2022-07-06T21:04:16;99837.13;;;31.34;40.44
55576;BME280;41437;45.478;9.116;2022-07-06T21:07:20;99831.84;;;31.32;40.50
55576;BME280;41437;45.478;9.116;2022-07-06T21:10:21;99838.78;;;31.31;40.58
55576;BME280;41437;45.478;9.116;2022-07-06T21:13:23;99842.81;;;31.30;40.51
55576;BME280;41437;45.478;9.116;2022-07-06T21:16:27;99839.56;;;31.28;40.62
55576;BME280;41437;45.478;9.116;2022-07-06T21:19:28;99840.75;;;31.27;40.46
55576;BME280;41437;45.478;9.116;2022-07-06T21:22:32;99839.13;;;31.26;40.61
55576;BME280;41437;45.478;9.116;2022-07-06T21:25:34;99849.28;;;31.23;40.75
55576;BME280;41437;45.478;9.116;2022-07-06T21:28:36;99847.25;;;31.24;40.70
55576;BME280;41437;45.478;9.116;2022-07-06T21:31:39;99846.84;;;31.22;40.83
55576;BME280;41437;45.478;9.116;2022-07-06T21:34:40;99847.22;;;31.20;40.78
55576;BME280;41437;45.478;9.116;2022-07-06T21:37:42;99837.88;;;31.20;40.83
55576;BME280;41437;45.478;9.116;2022-07-06T21:40:44;99840.31;;;31.18;40.92
55576;BME280;41437;45.478;9.116;2022-07-06T21:43:46;99842.34;;;31.14;40.69
55576;BME280;41437;45.478;9.116;2022-07-06T21:46:49;99847.63;;;31.15;40.86
55576;BME280;41437;45.478;9.116;2022-07-06T21:49:51;99859.41;;;31.14;40.84
55576;BME280;41437;45.478;9.116;2022-07-06T21:52:54;99858.59;;;31.13;40.92
55576;BME280;41437;45.478;9.116;2022-07-06T21:55:56;99865.91;;;31.11;40.81
55576;BME280;41437;45.478;9.116;2022-07-06T21:58:58;99854.50;;;31.11;40.87
55576;BME280;41437;45.478;9.116;2022-07-06T22:02:01;99859.38;;;31.07;40.86
55576;BME280;41437;45.478;9.116;2022-07-06T22:05:04;99865.06;;;31.07;41.18
55576;BME280;41437;45.478;9.116;2022-07-06T22:08:06;99865.47;;;31.05;41.30
55576;BME280;41437;45.478;9.116;2022-07-06T22:11:08;99863.00;;;31.03;40.97
55576;BME280;41437;45.478;9.116;2022-07-06T22:14:12;99868.28;;;31.01;41.02
55576;BME280;41437;45.478;9.116;2022-07-06T22:17:15;99868.28;;;31.01;41.15
55576;BME280;41437;45.478;9.116;2022-07-06T22:20:17;99871.53;;;31.00;40.98
55576;BME280;41437;45.478;9.116;2022-07-06T22:23:18;99865.00;;;30.99;41.09
55576;BME280;41437;45.478;9.116;2022-07-06T22:26:20;99878.03;;;30.97;40.91
55576;BME280;41437;45.478;9.116;2022-07-06T22:29:26;99869.88;;;30.95;41.15
55576;BME280;41437;45.478;9.116;2022-07-06T22:32:29;99870.72;;;30.96;41.06
55576;BME280;41437;45.478;9.116;2022-07-06T22:35:30;99871.91;;;30.95;41.13
55576;BME280;41437;45.478;9.116;2022-07-06T22:38:32;99875.16;;;30.93;41.32
55576;BME280;41437;45.478;9.116;2022-07-06T22:41:35;99865.81;;;30.93;41.25
55576;BME280;41437;45.478;9.116;2022-07-06T22:44:36;99859.69;;;30.91;41.21
55576;BME280;41437;45.478;9.116;2022-07-06T22:47:39;99865.78;;;30.89;41.26
55576;BME280;41437;45.478;9.116;2022-07-06T22:50:41;99860.09;;;30.89;41.27
55576;BME280;41437;45.478;9.116;2022-07-06T22:53:43;99867.38;;;30.87;41.34
55576;BME280;41437;45.478;9.116;2022-07-06T22:56:44;99858.44;;;30.85;41.39
55576;BME280;41437;45.478;9.116;2022-07-06T22:59:46;99866.16;;;30.84;41.41
55576;BME280;41437;45.478;9.116;2022-07-06T23:02:49;99865.72;;;30.82;41.26
55576;BME280;41437;45.478;9.116;2022-07-06T23:05:51;99861.25;;;30.81;41.28
55576;BME280;41437;45.478;9.116;2022-07-06T23:08:54;99859.22;;;30.78;41.37
55576;BME280;41437;45.478;9.116;2022-07-06T23:11:56;99860.44;;;30.77;41.44
55576;BME280;41437;45.478;9.116;2022-07-06T23:15:03;99863.28;;;30.77;41.67
55576;BME280;41437;45.478;9.116;2022-07-06T23:18:06;99852.72;;;30.74;41.40
55576;BME280;41437;45.478;9.116;2022-07-06T23:21:08;99847.03;;;30.74;41.09
55576;BME280;41437;45.478;9.116;2022-07-06T23:24:10;99850.63;;;30.71;41.23
55576;BME280;41437;45.478;9.116;2022-07-06T23:27:12;99852.66;;;30.70;41.45
55576;BME280;41437;45.478;9.116;2022-07-06T23:30:14;99850.19;;;30.69;41.55
55576;BME280;41437;45.478;9.116;2022-07-06T23:33:17;99847.75;;;30.67;41.25
55576;BME280;41437;45.478;9.116;2022-07-06T23:36:18;99851.00;;;30.66;41.49
55576;BME280;41437;45.478;9.116;2022-07-06T23:39:22;99849.34;;;30.65;41.32
55576;BME280;41437;45.478;9.116;2022-07-06T23:42:23;99843.25;;;30.63;41.42
55576;BME280;41437;45.478;9.116;2022-07-06T23:45:25;99848.94;;;30.63;41.49
55576;BME280;41437;45.478;9.116;2022-07-06T23:48:28;99852.56;;;30.60;41.20
55576;BME280;41437;45.478;9.116;2022-07-06T23:51:30;99859.47;;;30.59;41.47
55576;BME280;41437;45.478;9.116;2022-07-06T23:54:31;99852.94;;;30.54;41.47
55576;BME280;41437;45.478;9.116;2022-07-06T23:57:33;99855.78;;;30.54;41.36
